sensor_id;sensor_type;location;lat;lon;timestamp;temperature;humidity
24148;DHT22;12309;51.450;-2.624;2023-07-13T00:01:47;15.60;99.90
24148;DHT22;12309;51.450;-2.624;2023-07-13T00:04:16;15.60;99.90
24148;DHT22;12309;51.450;-2.624;2023-07-13T00:06:43;15.50;99.90
24148;DHT22;12309;51.450;-2.624;2023-07-13T00:09:11;15.50;99.90
24148;DHT22;12309;51.450;-2.624;2023-07-13T00:11:38;15.60;99.90
24148;DHT22;12309;51.450;-2.624;2023-07-13T00:14:03;15.50;99.90
24148;DHT22;12309;51.450;-2.624;2023-07-13T00:16:29;15.50;99.90
24148;DHT22;12309;51.450;-2.624;2023-07-13T00:21:21;15.50;99.90
24148;DHT22;12309;51.450;-2.624;2023-07-13T00:23:46;15.50;99.90
24148;DHT22;12309;51.450;-2.624;2023-07-13T00:26:12;15.40;99.90
24148;DHT22;12309;51.450;-2.624;2023-07-13T00:28:39;15.50;99.90
24148;DHT22;12309;51.450;-2.624;2023-07-13T00:31:05;15.40;99.90
24148;DHT22;12309;51.450;-2.624;2023-07-13T00:33:31;15.40;99.90
24148;DHT22;12309;51.450;-2.624;2023-07-13T00:35:58;15.40;99.90
24148;DHT22;12309;51.450;-2.624;2023-07-13T00:38:24;15.30;99.90
24148;DHT22;12309;51.450;-2.624;2023-07-13T00:40:50;15.30;99.90
24148;DHT22;12309;51.450;-2.624;2023-07-13T00:43:40;15.20;99.90
24148;DHT22;12309;51.450;-2.624;2023-07-13T00:46:28;15.30;99.90
24148;DHT22;12309;51.450;-2.624;2023-07-13T00:48:58;15.30;99.90
24148;DHT22;12309;51.450;-2.624;2023-07-13T00:51:31;15.30;99.90
24148;DHT22;12309;51.450;-2.624;2023-07-13T00:54:00;15.30;99.90
24148;DHT22;12309;51.450;-2.624;2023-07-13T00:56:26;15.30;99.90
24148;DHT22;12309;51.450;-2.624;2023-07-13T00:58:54;15.20;99.90
24148;DHT22;12309;51.450;-2.624;2023-07-13T01:01:20;15.30;99.90
24148;DHT22;12309;51.450;-2.624;2023-07-13T01:03:46;15.20;99.90
24148;DHT22;12309;51.450;-2.624;2023-07-13T01:06:12;15.30;99.90
24148;DHT22;12309;51.450;-2.624;2023-07-13T01:08:38;15.30;99.90
24148;DHT22;12309;51.450;-2.624;2023-07-13T01:11:05;15.30;99.90
24148;DHT22;12309;51.450;-2.624;2023-07-13T01:16:04;15.30;99.90
24148;DHT22;12309;51.450;-2.624;2023-07-13T01:18:34;15.20;99.90
24148;DHT22;12309;51.450;-2.624;2023-07-13T01:21:03;15.20;99.90
24148;DHT22;12309;51.450;-2.624;2023-07-13T01:23:30;15.20;99.90
24148;DHT22;12309;51.450;-2.624;2023-07-13T01:25:57;15.10;99.90
24148;DHT22;12309;51.450;-2.624;2023-07-13T01:28:25;15.10;99.90
24148;DHT22;12309;51.450;-2.624;2023-07-13T01:30:53;15.10;99.90
24148;DHT22;12309;51.450;-2.624;2023-07-13T01:33:19;15.20;99.90
24148;DHT22;12309;51.450;-2.624;2023-07-13T01:35:46;15.20;99.90
24148;DHT22;12309;51.450;-2.624;2023-07-13T01:38:14;15.10;99.90
24148;DHT22;12309;51.450;-2.624;2023-07-13T01:40:40;15.20;99.90
24148;DHT22;12309;51.450;-2.624;2023-07-13T01:45:32;15.10;99.90
24148;DHT22;12309;51.450;-2.624;2023-07-13T01:47:59;15.10;99.90
24148;DHT22;12309;51.450;-2.624;2023-07-13T01:50:25;15.10;99.90
24148;DHT22;12309;51.450;-2.624;2023-07-13T01:52:51;15.20;99.90
24148;DHT22;12309;51.450;-2.624;2023-07-13T01:55:17;15.20;99.90
24148;DHT22;12309;51.450;-2.624;2023-07-13T01:57:43;15.20;99.90
24148;DHT22;12309;51.450;-2.624;2023-07-13T02:00:10;15.20;99.90
24148;DHT22;12309;51.450;-2.624;2023-07-13T02:02:36;15.10;99.90
24148;DHT22;12309;51.450;-2.624;2023-07-13T02:05:01;15.10;99.90
24148;DHT22;12309;51.450;-2.624;2023-07-13T02:07:27;15.20;99.90
24148;DHT22;12309;51.450;-2.624;2023-07-13T02:09:53;15.20;99.90
24148;DHT22;12309;51.450;-2.624;2023-07-13T02:12:19;15.10;99.90
24148;DHT22;12309;51.450;-2.624;2023-07-13T02:14:45;15.10;99.90
24148;DHT22;12309;51.450;-2.624;2023-07-13T02:19:36;15.10;99.90
24148;DHT22;12309;51.450;-2.624;2023-07-13T02:22:02;15.00;99.90
24148;DHT22;12309;51.450;-2.624;2023-07-13T02:24:28;15.00;99.90
24148;DHT22;12309;51.450;-2.624;2023-07-13T02:26:53;15.00;99.90
24148;DHT22;12309;51.450;-2.624;2023-07-13T02:29:19;15.00;99.90
24148;DHT22;12309;51.450;-2.624;2023-07-13T02:31:45;15.00;99.90
24148;DHT22;12309;51.450;-2.624;2023-07-13T02:34:10;15.00;99.90
24148;DHT22;12309;51.450;-2.624;2023-07-13T02:36:36;14.90;99.90
24148;DHT22;12309;51.450;-2.624;2023-07-13T02:39:04;14.90;99.90
24148;DHT22;12309;51.450;-2.624;2023-07-13T02:41:30;14.90;99.90
24148;DHT22;12309;51.450;-2.624;2023-07-13T02:43:58;14.90;99.90
24148;DHT22;12309;51.450;-2.624;2023-07-13T02:46:33;14.90;99.90
24148;DHT22;12309;51.450;-2.624;2023-07-13T02:48:59;14.90;99.90
24148;DHT22;12309;51.450;-2.624;2023-07-13T02:51:25;14.60;99.90
24148;DHT22;12309;51.450;-2.624;2023-07-13T02:56:16;14.80;99.90
24148;DHT22;12309;51.450;-2.624;2023-07-13T02:58:42;14.90;99.90
24148;DHT22;12309;51.450;-2.624;2023-07-13T03:01:09;14.90;99.90
24148;DHT22;12309;51.450;-2.624;2023-07-13T03:03:35;14.90;99.90
24148;DHT22;12309;51.450;-2.624;2023-07-13T03:06:03;14.90;99.90
24148;DHT22;12309;51.450;-2.624;2023-07-13T03:08:29;14.90;99.90
24148;DHT22;12309;51.450;-2.624;2023-07-13T03:11:07;14.90;99.90
24148;DHT22;12309;51.450;-2.624;2023-07-13T03:13:34;14.80;99.90
24148;DHT22;12309;51.450;-2.624;2023-07-13T03:16:00;14.60;99.90
24148;DHT22;12309;51.450;-2.624;2023-07-13T03:18:28;14.80;99.90
24148;DHT22;12309;51.450;-2.624;2023-07-13T03:20:54;14.70;99.90
24148;DHT22;12309;51.450;-2.624;2023-07-13T03:23:21;14.70;99.90
24148;DHT22;12309;51.450;-2.624;2023-07-13T03:25:47;14.80;99.90
24148;DHT22;12309;51.450;-2.624;2023-07-13T03:28:13;14.70;99.90
24148;DHT22;12309;51.450;-2.624;2023-07-13T03:30:40;15.10;99.90
24148;DHT22;12309;51.450;-2.624;2023-07-13T03:33:05;14.70;99.90
24148;DHT22;12309;51.450;-2.624;2023-07-13T03:35:31;14.70;99.90
24148;DHT22;12309;51.450;-2.624;2023-07-13T03:37:58;14.70;99.90
24148;DHT22;12309;51.450;-2.624;2023-07-13T03:40:25;14.70;99.90
24148;DHT22;12309;51.450;-2.624;2023-07-13T03:42:52;14.80;99.90
24148;DHT22;12309;51.450;-2.624;2023-07-13T03:45:18;14.70;99.90
24148;DHT22;12309;51.450;-2.624;2023-07-13T03:47:43;14.70;99.90
24148;DHT22;12309;51.450;-2.624;2023-07-13T03:50:09;14.70;99.90
24148;DHT22;12309;51.450;-2.624;2023-07-13T03:52:35;14.70;99.90
24148;DHT22;12309;51.450;-2.624;2023-07-13T03:55:00;14.70;99.90
24148;DHT22;12309;51.450;-2.624;2023-07-13T03:57:26;14.70;99.90
24148;DHT22;12309;51.450;-2.624;2023-07-13T03:59:52;14.60;99.90
24148;DHT22;12309;51.450;-2.624;2023-07-13T04:02:17;14.60;99.90
24148;DHT22;12309;51.450;-2.624;2023-07-13T04:04:43;14.70;99.90
24148;DHT22;12309;51.450;-2.624;2023-07-13T04:07:09;14.70;99.90
24148;DHT22;12309;51.450;-2.624;2023-07-13T04:09:36;14.70;99.90
24148;DHT22;12309;51.450;-2.624;2023-07-13T04:14:27;14.70;99.90
24148;DHT22;12309;51.450;-2.624;2023-07-13T04:16:53;14.70;99.90
24148;DHT22;12309;51.450;-2.624;2023-07-13T04:19:20;14.70;99.90
24148;DHT22;12309;51.450;-2.624;2023-07-13T04:21:46;14.80;99.90
24148;DHT22;12309;51.450;-2.624;2023-07-13T04:24:12;14.80;99.90
24148;DHT22;12309;51.450;-2.624;2023-07-13T04:26:38;14.80;99.90
24148;DHT22;12309;51.450;-2.624;2023-07-13T04:29:05;14.90;99.90
24148;DHT22;12309;51.450;-2.624;2023-07-13T04:31:32;14.80;99.90
24148;DHT22;12309;51.450;-2.624;2023-07-13T04:33:57;14.80;99.90
24148;DHT22;12309;51.450;-2.624;2023-07-13T04:36:24;14.90;99.90
24148;DHT22;12309;51.450;-2.624;2023-07-13T04:38:52;14.90;99.90
24148;DHT22;12309;51.450;-2.624;2023-07-13T04:41:20;15.00;99.90
24148;DHT22;12309;51.450;-2.624;2023-07-13T04:43:46;15.00;99.90
24148;DHT22;12309;51.450;-2.624;2023-07-13T04:46:14;15.10;99.90
24148;DHT22;12309;51.450;-2.624;2023-07-13T04:48:40;15.00;99.90
24148;DHT22;12309;51.450;-2.624;2023-07-13T04:51:06;15.00;99.90
24148;DHT22;12309;51.450;-2.624;2023-07-13T04:53:32;15.10;99.90
24148;DHT22;12309;51.450;-2.624;2023-07-13T04:55:59;15.10;99.90
24148;DHT22;12309;51.450;-2.624;2023-07-13T04:58:26;15.20;99.90
24148;DHT22;12309;51.450;-2.624;2023-07-13T05:00:53;15.20;99.90
24148;DHT22;12309;51.450;-2.624;2023-07-13T05:03:19;15.20;99.90
24148;DHT22;12309;51.450;-2.624;2023-07-13T05:05:55;15.30;99.90
24148;DHT22;12309;51.450;-2.624;2023-07-13T05:08:21;15.30;99.90
24148;DHT22;12309;51.450;-2.624;2023-07-13T05:10:47;15.30;99.90
24148;DHT22;12309;51.450;-2.624;2023-07-13T05:13:13;15.40;99.90
24148;DHT22;12309;51.450;-2.624;2023-07-13T05:18:04;15.40;99.90
24148;DHT22;12309;51.450;-2.624;2023-07-13T05:20:30;15.40;99.90
24148;DHT22;12309;51.450;-2.624;2023-07-13T05:22:56;15.50;99.90
24148;DHT22;12309;51.450;-2.624;2023-07-13T05:25:22;15.60;99.90
24148;DHT22;12309;51.450;-2.624;2023-07-13T05:27:47;15.60;99.90
24148;DHT22;12309;51.450;-2.624;2023-07-13T05:30:13;15.50;99.90
24148;DHT22;12309;51.450;-2.624;2023-07-13T05:32:39;15.40;99.90
24148;DHT22;12309;51.450;-2.624;2023-07-13T05:35:05;15.50;99.90
24148;DHT22;12309;51.450;-2.624;2023-07-13T05:37:31;15.50;99.90
24148;DHT22;12309;51.450;-2.624;2023-07-13T05:39:57;15.50;99.90
24148;DHT22;12309;51.450;-2.624;2023-07-13T05:42:22;15.30;99.90
24148;DHT22;12309;51.450;-2.624;2023-07-13T05:44:48;15.50;99.90
24148;DHT22;12309;51.450;-2.624;2023-07-13T05:47:13;15.50;99.90
24148;DHT22;12309;51.450;-2.624;2023-07-13T05:49:40;15.50;99.90
24148;DHT22;12309;51.450;-2.624;2023-07-13T05:52:06;15.60;99.90
24148;DHT22;12309;51.450;-2.624;2023-07-13T05:54:32;15.60;99.90
24148;DHT22;12309;51.450;-2.624;2023-07-13T05:56:57;15.60;99.90
24148;DHT22;12309;51.450;-2.624;2023-07-13T05:59:23;15.60;99.90
24148;DHT22;12309;51.450;-2.624;2023-07-13T06:01:49;15.60;99.90
24148;DHT22;12309;51.450;-2.624;2023-07-13T06:04:15;15.60;99.90
24148;DHT22;12309;51.450;-2.624;2023-07-13T06:06:40;15.70;99.90
24148;DHT22;12309;51.450;-2.624;2023-07-13T06:09:06;15.70;99.90
24148;DHT22;12309;51.450;-2.624;2023-07-13T06:11:31;15.80;99.90
24148;DHT22;12309;51.450;-2.624;2023-07-13T06:13:57;15.70;99.90
24148;DHT22;12309;51.450;-2.624;2023-07-13T06:16:23;15.80;99.90
24148;DHT22;12309;51.450;-2.624;2023-07-13T06:18:49;16.00;99.90
24148;DHT22;12309;51.450;-2.624;2023-07-13T06:21:17;16.00;99.90
24148;DHT22;12309;51.450;-2.624;2023-07-13T06:23:44;16.10;99.90
24148;DHT22;12309;51.450;-2.624;2023-07-13T06:26:10;16.10;99.90
24148;DHT22;12309;51.450;-2.624;2023-07-13T06:28:37;16.10;99.90
24148;DHT22;12309;51.450;-2.624;2023-07-13T06:31:06;16.20;99.90
24148;DHT22;12309;51.450;-2.624;2023-07-13T06:33:31;16.20;99.90
24148;DHT22;12309;51.450;-2.624;2023-07-13T06:35:57;16.40;99.90
24148;DHT22;12309;51.450;-2.624;2023-07-13T06:38:23;16.40;99.90
24148;DHT22;12309;51.450;-2.624;2023-07-13T06:40:49;16.30;99.90
24148;DHT22;12309;51.450;-2.624;2023-07-13T06:43:14;16.30;99.90
24148;DHT22;12309;51.450;-2.624;2023-07-13T06:45:42;16.40;99.90
24148;DHT22;12309;51.450;-2.624;2023-07-13T06:48:08;16.50;99.90
24148;DHT22;12309;51.450;-2.624;2023-07-13T06:50:34;16.60;99.90
24148;DHT22;12309;51.450;-2.624;2023-07-13T06:53:00;16.40;99.90
24148;DHT22;12309;51.450;-2.624;2023-07-13T06:55:25;16.40;99.90
24148;DHT22;12309;51.450;-2.624;2023-07-13T06:57:51;16.30;99.90
24148;DHT22;12309;51.450;-2.624;2023-07-13T07:00:17;16.30;99.90
24148;DHT22;12309;51.450;-2.624;2023-07-13T07:02:43;16.40;99.90
24148;DHT22;12309;51.450;-2.624;2023-07-13T07:05:09;16.30;99.90
24148;DHT22;12309;51.450;-2.624;2023-07-13T07:10:01;16.40;99.90
24148;DHT22;12309;51.450;-2.624;2023-07-13T07:12:27;16.40;99.90
24148;DHT22;12309;51.450;-2.624;2023-07-13T07:14:53;16.40;99.90
24148;DHT22;12309;51.450;-2.624;2023-07-13T07:17:18;16.40;99.90
24148;DHT22;12309;51.450;-2.624;2023-07-13T07:19:44;14.50;99.90
24148;DHT22;12309;51.450;-2.624;2023-07-13T07:22:09;16.20;99.90
24148;DHT22;12309;51.450;-2.624;2023-07-13T07:27:01;16.10;99.90
24148;DHT22;12309;51.450;-2.624;2023-07-13T07:29:27;16.20;99.90
24148;DHT22;12309;51.450;-2.624;2023-07-13T07:31:53;16.20;99.90
24148;DHT22;12309;51.450;-2.624;2023-07-13T07:34:19;16.30;99.90
24148;DHT22;12309;51.450;-2.624;2023-07-13T07:36:44;16.30;99.90
24148;DHT22;12309;51.450;-2.624;2023-07-13T07:39:10;16.30;99.90
24148;DHT22;12309;51.450;-2.624;2023-07-13T07:41:37;16.30;99.90
24148;DHT22;12309;51.450;-2.624;2023-07-13T07:44:03;16.20;99.90
24148;DHT22;12309;51.450;-2.624;2023-07-13T07:46:29;16.10;99.90
24148;DHT22;12309;51.450;-2.624;2023-07-13T07:48:56;16.10;99.90
24148;DHT22;12309;51.450;-2.624;2023-07-13T07:51:22;16.10;99.90
24148;DHT22;12309;51.450;-2.624;2023-07-13T07:53:48;16.00;99.90
24148;DHT22;12309;51.450;-2.624;2023-07-13T07:56:13;16.00;99.90
24148;DHT22;12309;51.450;-2.624;2023-07-13T07:58:41;16.00;99.90
24148;DHT22;12309;51.450;-2.624;2023-07-13T08:01:07;16.00;99.90
24148;DHT22;12309;51.450;-2.624;2023-07-13T08:03:33;16.00;99.90
24148;DHT22;12309;51.450;-2.624;2023-07-13T08:05:59;16.10;99.90
24148;DHT22;12309;51.450;-2.624;2023-07-13T08:08:25;16.00;99.90
24148;DHT22;12309;51.450;-2.624;2023-07-13T08:10:51;16.00;99.90
24148;DHT22;12309;51.450;-2.624;2023-07-13T08:13:16;16.10;99.90
24148;DHT22;12309;51.450;-2.624;2023-07-13T08:15:42;16.10;99.90
24148;DHT22;12309;51.450;-2.624;2023-07-13T08:18:08;16.00;99.90
24148;DHT22;12309;51.450;-2.624;2023-07-13T08:20:39;16.10;99.90
24148;DHT22;12309;51.450;-2.624;2023-07-13T08:23:05;16.10;99.90
24148;DHT22;12309;51.450;-2.624;2023-07-13T08:25:31;16.20;99.90
24148;DHT22;12309;51.450;-2.624;2023-07-13T08:27:56;16.20;99.90
24148;DHT22;12309;51.450;-2.624;2023-07-13T08:30:22;16.30;99.90
24148;DHT22;12309;51.450;-2.624;2023-07-13T08:32:48;16.30;99.90
24148;DHT22;12309;51.450;-2.624;2023-07-13T08:35:15;16.40;99.90
24148;DHT22;12309;51.450;-2.624;2023-07-13T08:37:41;16.50;99.90
24148;DHT22;12309;51.450;-2.624;2023-07-13T08:40:09;16.60;99.90
24148;DHT22;12309;51.450;-2.624;2023-07-13T08:48:11;17.30;99.90
24148;DHT22;12309;51.450;-2.624;2023-07-13T08:53:36;17.50;99.90
24148;DHT22;12309;51.450;-2.624;2023-07-13T08:56:07;17.30;99.90
24148;DHT22;12309;51.450;-2.624;2023-07-13T08:58:36;17.30;99.90
24148;DHT22;12309;51.450;-2.624;2023-07-13T09:02:07;17.40;99.90
24148;DHT22;12309;51.450;-2.624;2023-07-13T09:04:14;17.10;99.90
24148;DHT22;12309;51.450;-2.624;2023-07-13T09:09:21;17.20;99.90
24148;DHT22;12309;51.450;-2.624;2023-07-13T09:11:58;17.20;99.90
24148;DHT22;12309;51.450;-2.624;2023-07-13T09:14:41;17.00;99.90
24148;DHT22;12309;51.450;-2.624;2023-07-13T09:17:49;17.00;99.90
24148;DHT22;12309;51.450;-2.624;2023-07-13T09:20:37;16.80;99.90
24148;DHT22;12309;51.450;-2.624;2023-07-13T09:23:07;16.70;99.90
24148;DHT22;12309;51.450;-2.624;2023-07-13T09:25:35;16.80;99.90
24148;DHT22;12309;51.450;-2.624;2023-07-13T09:28:34;16.80;99.90
24148;DHT22;12309;51.450;-2.624;2023-07-13T09:31:09;16.90;99.90
24148;DHT22;12309;51.450;-2.624;2023-07-13T09:33:38;16.70;99.90
24148;DHT22;12309;51.450;-2.624;2023-07-13T09:36:24;16.60;99.90
24148;DHT22;12309;51.450;-2.624;2023-07-13T09:38:59;16.70;99.90
24148;DHT22;12309;51.450;-2.624;2023-07-13T09:44:34;16.90;99.90
24148;DHT22;12309;51.450;-2.624;2023-07-13T09:47:01;17.10;99.90
24148;DHT22;12309;51.450;-2.624;2023-07-13T09:49:29;17.30;99.90
24148;DHT22;12309;51.450;-2.624;2023-07-13T09:52:11;17.30;99.90
24148;DHT22;12309;51.450;-2.624;2023-07-13T09:54:37;17.30;99.90
24148;DHT22;12309;51.450;-2.624;2023-07-13T09:57:12;17.50;99.90
24148;DHT22;12309;51.450;-2.624;2023-07-13T09:59:41;17.40;99.90
24148;DHT22;12309;51.450;-2.624;2023-07-13T10:02:35;17.60;99.90
24148;DHT22;12309;51.450;-2.624;2023-07-13T10:05:13;18.00;99.90
24148;DHT22;12309;51.450;-2.624;2023-07-13T10:07:44;18.20;99.90
24148;DHT22;12309;51.450;-2.624;2023-07-13T10:10:15;18.40;99.90
24148;DHT22;12309;51.450;-2.624;2023-07-13T10:12:41;18.60;99.90
24148;DHT22;12309;51.450;-2.624;2023-07-13T10:15:14;18.50;99.90
24148;DHT22;12309;51.450;-2.624;2023-07-13T10:17:40;18.40;99.90
24148;DHT22;12309;51.450;-2.624;2023-07-13T10:20:06;18.50;99.90
24148;DHT22;12309;51.450;-2.624;2023-07-13T10:23:04;19.10;99.90
24148;DHT22;12309;51.450;-2.624;2023-07-13T10:25:33;18.30;99.90
24148;DHT22;12309;51.450;-2.624;2023-07-13T10:30:47;19.30;99.90
24148;DHT22;12309;51.450;-2.624;2023-07-13T10:33:14;19.60;99.90
24148;DHT22;12309;51.450;-2.624;2023-07-13T10:35:43;19.70;99.90
24148;DHT22;12309;51.450;-2.624;2023-07-13T10:38:14;20.00;99.90
24148;DHT22;12309;51.450;-2.624;2023-07-13T10:40:49;20.10;99.90
24148;DHT22;12309;51.450;-2.624;2023-07-13T10:43:22;20.20;99.90
24148;DHT22;12309;51.450;-2.624;2023-07-13T10:45:49;20.30;99.90
24148;DHT22;12309;51.450;-2.624;2023-07-13T10:48:17;19.90;99.90
24148;DHT22;12309;51.450;-2.624;2023-07-13T10:50:46;19.90;99.90
24148;DHT22;12309;51.450;-2.624;2023-07-13T10:53:20;19.90;99.90
24148;DHT22;12309;51.450;-2.624;2023-07-13T11:03:37;19.90;99.90
24148;DHT22;12309;51.450;-2.624;2023-07-13T11:11:34;19.90;99.90
24148;DHT22;12309;51.450;-2.624;2023-07-13T11:14:01;20.00;99.90
24148;DHT22;12309;51.450;-2.624;2023-07-13T11:16:44;20.30;99.90
24148;DHT22;12309;51.450;-2.624;2023-07-13T11:25:01;21.70;99.90
24148;DHT22;12309;51.450;-2.624;2023-07-13T11:30:21;21.00;99.90
24148;DHT22;12309;51.450;-2.624;2023-07-13T11:33:51;20.80;99.90
24148;DHT22;12309;51.450;-2.624;2023-07-13T11:35:51;20.80;99.90
24148;DHT22;12309;51.450;-2.624;2023-07-13T11:38:24;20.50;99.90
24148;DHT22;12309;51.450;-2.624;2023-07-13T11:40:54;20.70;99.90
24148;DHT22;12309;51.450;-2.624;2023-07-13T11:43:20;20.90;99.90
24148;DHT22;12309;51.450;-2.624;2023-07-13T11:45:49;21.10;99.90
24148;DHT22;12309;51.450;-2.624;2023-07-13T11:48:23;21.20;99.90
24148;DHT22;12309;51.450;-2.624;2023-07-13T11:51:14;21.40;99.90
24148;DHT22;12309;51.450;-2.624;2023-07-13T11:53:43;21.40;99.90
24148;DHT22;12309;51.450;-2.624;2023-07-13T11:56:10;21.40;99.90
24148;DHT22;12309;51.450;-2.624;2023-07-13T11:58:36;21.90;99.90
24148;DHT22;12309;51.450;-2.624;2023-07-13T12:01:02;21.60;99.90
24148;DHT22;12309;51.450;-2.624;2023-07-13T12:03:32;21.70;99.90
24148;DHT22;12309;51.450;-2.624;2023-07-13T12:06:04;21.50;99.90
24148;DHT22;12309;51.450;-2.624;2023-07-13T12:08:39;20.90;99.90
24148;DHT22;12309;51.450;-2.624;2023-07-13T12:11:14;21.20;99.90
24148;DHT22;12309;51.450;-2.624;2023-07-13T12:13:40;21.20;99.90
24148;DHT22;12309;51.450;-2.624;2023-07-13T12:16:22;21.20;99.90
24148;DHT22;12309;51.450;-2.624;2023-07-13T12:18:52;22.30;99.90
24148;DHT22;12309;51.450;-2.624;2023-07-13T12:21:19;22.70;99.90
24148;DHT22;12309;51.450;-2.624;2023-07-13T12:23:48;22.70;1.00
24148;DHT22;12309;51.450;-2.624;2023-07-13T12:26:15;23.30;1.00
24148;DHT22;12309;51.450;-2.624;2023-07-13T12:28:52;23.10;1.00
24148;DHT22;12309;51.450;-2.624;2023-07-13T12:31:41;23.00;18.90
24148;DHT22;12309;51.450;-2.624;2023-07-13T12:34:16;23.50;1.00
24148;DHT22;12309;51.450;-2.624;2023-07-13T12:39:43;23.20;1.00
24148;DHT22;12309;51.450;-2.624;2023-07-13T12:42:31;23.50;1.00
24148;DHT22;12309;51.450;-2.624;2023-07-13T12:45:03;23.40;1.00
24148;DHT22;12309;51.450;-2.624;2023-07-13T12:47:30;23.30;99.90
24148;DHT22;12309;51.450;-2.624;2023-07-13T12:49:58;22.60;1.00
24148;DHT22;12309;51.450;-2.624;2023-07-13T12:52:32;22.00;1.00
24148;DHT22;12309;51.450;-2.624;2023-07-13T12:55:10;21.70;1.00
24148;DHT22;12309;51.450;-2.624;2023-07-13T12:57:56;21.90;1.00
24148;DHT22;12309;51.450;-2.624;2023-07-13T13:00:37;22.30;99.90
24148;DHT22;12309;51.450;-2.624;2023-07-13T13:03:35;22.30;37.40
24148;DHT22;12309;51.450;-2.624;2023-07-13T13:08:32;22.60;1.00
24148;DHT22;12309;51.450;-2.624;2023-07-13T13:10:58;21.70;1.00
24148;DHT22;12309;51.450;-2.624;2023-07-13T13:13:23;21.20;99.90
24148;DHT22;12309;51.450;-2.624;2023-07-13T13:18:23;21.40;1.00
24148;DHT22;12309;51.450;-2.624;2023-07-13T13:20:49;22.60;1.00
24148;DHT22;12309;51.450;-2.624;2023-07-13T13:23:17;22.60;99.90
24148;DHT22;12309;51.450;-2.624;2023-07-13T13:25:45;23.00;1.00
24148;DHT22;12309;51.450;-2.624;2023-07-13T13:28:16;22.50;1.00
24148;DHT22;12309;51.450;-2.624;2023-07-13T13:30:45;22.50;1.00
24148;DHT22;12309;51.450;-2.624;2023-07-13T13:33:13;22.30;99.90
24148;DHT22;12309;51.450;-2.624;2023-07-13T13:35:40;22.80;1.00
24148;DHT22;12309;51.450;-2.624;2023-07-13T13:38:18;22.50;99.90
24148;DHT22;12309;51.450;-2.624;2023-07-13T13:40:45;22.60;99.90
24148;DHT22;12309;51.450;-2.624;2023-07-13T13:43:25;23.10;1.00
24148;DHT22;12309;51.450;-2.624;2023-07-13T13:45:53;24.20;1.00
24148;DHT22;12309;51.450;-2.624;2023-07-13T13:48:23;25.40;99.90
24148;DHT22;12309;51.450;-2.624;2023-07-13T13:50:56;25.00;99.90
24148;DHT22;12309;51.450;-2.624;2023-07-13T13:53:21;24.80;99.90
24148;DHT22;12309;51.450;-2.624;2023-07-13T13:55:49;24.70;99.90
24148;DHT22;12309;51.450;-2.624;2023-07-13T14:00:41;25.70;99.90
24148;DHT22;12309;51.450;-2.624;2023-07-13T14:03:17;25.80;1.00
24148;DHT22;12309;51.450;-2.624;2023-07-13T14:05:43;25.00;59.50
24148;DHT22;12309;51.450;-2.624;2023-07-13T14:08:17;24.80;1.00
24148;DHT22;12309;51.450;-2.624;2023-07-13T14:10:49;24.10;1.00
24148;DHT22;12309;51.450;-2.624;2023-07-13T14:13:18;24.40;1.00
24148;DHT22;12309;51.450;-2.624;2023-07-13T14:18:11;25.20;1.00
24148;DHT22;12309;51.450;-2.624;2023-07-13T14:20:37;25.50;1.00
24148;DHT22;12309;51.450;-2.624;2023-07-13T14:23:06;24.80;1.00
24148;DHT22;12309;51.450;-2.624;2023-07-13T14:25:31;24.80;1.00
24148;DHT22;12309;51.450;-2.624;2023-07-13T14:27:58;25.00;99.90
24148;DHT22;12309;51.450;-2.624;2023-07-13T14:30:26;24.60;99.90
24148;DHT22;12309;51.450;-2.624;2023-07-13T14:32:51;25.00;1.00
24148;DHT22;12309;51.450;-2.624;2023-07-13T14:35:21;25.20;1.00
24148;DHT22;12309;51.450;-2.624;2023-07-13T14:37:48;25.10;1.00
24148;DHT22;12309;51.450;-2.624;2023-07-13T14:40:17;25.10;1.00
24148;DHT22;12309;51.450;-2.624;2023-07-13T14:42:43;25.40;1.00
24148;DHT22;12309;51.450;-2.624;2023-07-13T14:45:17;26.10;99.90
24148;DHT22;12309;51.450;-2.624;2023-07-13T14:47:43;26.10;99.90
24148;DHT22;12309;51.450;-2.624;2023-07-13T14:52:39;26.20;99.90
24148;DHT22;12309;51.450;-2.624;2023-07-13T14:55:12;25.40;99.90
24148;DHT22;12309;51.450;-2.624;2023-07-13T14:57:38;25.10;99.90
24148;DHT22;12309;51.450;-2.624;2023-07-13T15:00:07;25.20;1.00
24148;DHT22;12309;51.450;-2.624;2023-07-13T15:02:38;25.90;99.90
24148;DHT22;12309;51.450;-2.624;2023-07-13T15:05:19;26.10;1.00
24148;DHT22;12309;51.450;-2.624;2023-07-13T15:07:46;25.30;1.00
24148;DHT22;12309;51.450;-2.624;2023-07-13T15:10:22;25.90;1.00
24148;DHT22;12309;51.450;-2.624;2023-07-13T15:12:51;25.40;99.90
24148;DHT22;12309;51.450;-2.624;2023-07-13T15:15:17;24.90;1.00
24148;DHT22;12309;51.450;-2.624;2023-07-13T15:17:45;24.30;99.90
24148;DHT22;12309;51.450;-2.624;2023-07-13T15:20:19;24.20;1.00
24148;DHT22;12309;51.450;-2.624;2023-07-13T15:22:45;22.90;1.00
24148;DHT22;12309;51.450;-2.624;2023-07-13T15:25:20;22.60;99.90
24148;DHT22;12309;51.450;-2.624;2023-07-13T15:27:46;22.40;1.00
24148;DHT22;12309;51.450;-2.624;2023-07-13T15:30:15;22.60;1.00
24148;DHT22;12309;51.450;-2.624;2023-07-13T15:32:42;22.40;1.00
24148;DHT22;12309;51.450;-2.624;2023-07-13T15:35:16;23.00;1.00
24148;DHT22;12309;51.450;-2.624;2023-07-13T15:37:42;23.30;1.00
24148;DHT22;12309;51.450;-2.624;2023-07-13T15:40:09;24.10;1.00
24148;DHT22;12309;51.450;-2.624;2023-07-13T15:42:35;24.50;1.00
24148;DHT22;12309;51.450;-2.624;2023-07-13T15:45:04;25.00;99.90
24148;DHT22;12309;51.450;-2.624;2023-07-13T15:47:31;24.60;1.00
24148;DHT22;12309;51.450;-2.624;2023-07-13T15:52:24;23.40;1.00
24148;DHT22;12309;51.450;-2.624;2023-07-13T15:54:50;23.40;99.90
24148;DHT22;12309;51.450;-2.624;2023-07-13T15:57:17;23.60;99.90
24148;DHT22;12309;51.450;-2.624;2023-07-13T15:59:43;24.00;99.90
24148;DHT22;12309;51.450;-2.624;2023-07-13T16:02:18;24.50;99.90
24148;DHT22;12309;51.450;-2.624;2023-07-13T16:04:44;24.50;91.30
24148;DHT22;12309;51.450;-2.624;2023-07-13T16:07:11;24.70;51.30
24148;DHT22;12309;51.450;-2.624;2023-07-13T16:09:39;23.70;99.90
24148;DHT22;12309;51.450;-2.624;2023-07-13T16:12:11;23.70;1.00
24148;DHT22;12309;51.450;-2.624;2023-07-13T16:14:38;23.70;1.00
24148;DHT22;12309;51.450;-2.624;2023-07-13T16:17:04;24.00;1.00
24148;DHT22;12309;51.450;-2.624;2023-07-13T16:19:31;23.40;99.90
24148;DHT22;12309;51.450;-2.624;2023-07-13T16:21:59;23.30;99.90
24148;DHT22;12309;51.450;-2.624;2023-07-13T16:24:31;23.30;1.00
24148;DHT22;12309;51.450;-2.624;2023-07-13T16:26:57;23.70;99.90
24148;DHT22;12309;51.450;-2.624;2023-07-13T16:29:29;23.80;1.00
24148;DHT22;12309;51.450;-2.624;2023-07-13T16:34:22;23.50;99.90
24148;DHT22;12309;51.450;-2.624;2023-07-13T16:39:15;22.80;99.90
24148;DHT22;12309;51.450;-2.624;2023-07-13T16:41:41;22.10;99.90
24148;DHT22;12309;51.450;-2.624;2023-07-13T16:44:12;22.70;99.90
24148;DHT22;12309;51.450;-2.624;2023-07-13T16:49:18;23.20;99.90
24148;DHT22;12309;51.450;-2.624;2023-07-13T16:51:45;22.60;99.90
24148;DHT22;12309;51.450;-2.624;2023-07-13T16:56:38;22.20;99.90